Siros, Greece
Current Conditions -  °F | °C
As of 3:50 PM on Thursday 27 Nov 2014 (Local Time) from LGMK Reporting Station
Scattered Clouds Scattered Clouds  
Wind Chill: 57°   Ceiling: Unl
Heat Index: 57°   Visibility: 6mi
Dew Point: 43°   Wind: 13mph
Humidity: 59%   Direction: 360°N
Pressure: 30.09"   Gusts: NA
Location:  37.45°N, 24.93°E
Report Text: LGMK 271250Z 36011KT 9999 SCT020 SCT080 14/06 Q1019
Loading
Personal Weather Stations






























Interactive Weather Map New forecast layout! Learn more

10-Day Weather Forecast

Advertisements
Track Severe Weather on mobile